Other Surface Observations
Issued by NWS Great Falls, MT

Home | Current Version | Previous Version | Text Only | Print | Product List | Glossary On
Versions: 1 2 3 4 5 6 7 8 9 10 11 12 13 14 15 16 17 18 19 20 21 22 23 24 25 26 27 28 29 30 31 32 33 34 35 36 37 38 39 40 41 42 43 44 45 46 47 48 49 50
154
SXUS55 KTFX 241044
OSOTFX
AREA AWOS OBSERVATIONS
NATIONAL WEATHER SERVICE GREAT FALLS MT
0444 AM MDT SUN JUL 24 2016

METAR KPWD 241045Z AUTO 29004KT 8SM 13/12 A3001 RMK PLENTYWOOD
METAR KPO1 241045Z AUTO 00000KT 10SM 13/11 A3003 RMK POPLAR
METAR K1S3 241045Z AUTO 00000KT 10SM 16/11 A3006 RMK FORSYTH
METAR KS71 241045Z AUTO 00000KT 10SM 12/11 A3003 RMK CHINOOK
METAR K38S 241045Z AUTO 26003KT 10SM 07/03 A3024 RMK DEER LODGE
METAR K3U3 241045Z AUTO 22003KT 10SM 08/03 A3022 RMK ANACONDA
METAR K6S5 241045Z AUTO 00000KT 10SM 11/04 A3017 RMK HAMILTON
METAR KS59 241045Z AUTO 00000KT 10SM 08/06 A3016 RMK LIBBY
METAR K88M 241045Z AUTO 00000KT 10SM 09/07 A3014 RMK EUREKA



USA.gov is the U.S. government's official web portal to all federal, state and local government web resources and services.